Time;durP1;ratioP1;P1;durP2;ratioP2;P2;SDS_P1;SDS_P2;PMS_P1;PMS_P2;Temp;Humidity;BMP_temperature;BMP_pressure;BME280_temperature;BME280_humidity;BME280_pressure;Samples;Min_cycle;Max_cycle;Signal;HPM_P1;HPM_P2
2021/08/30 00:00:54;;;;;;;5.00;1.87;;;8.00;99.90;7.80;96522.00;;;;4965405;28;20218;-76
2021/08/30 00:03:43;;;;;;;2.57;1.60;;;8.10;99.90;7.70;96527.00;;;;4966853;28;20211;-76
2021/08/30 00:06:32;;;;;;;1.97;1.40;;;8.10;99.90;7.60;96522.00;;;;4966499;28;20343;-76
2021/08/30 00:09:22;;;;;;;3.30;1.80;;;8.10;99.90;7.70;96522.00;;;;4957498;28;20663;-76
2021/08/30 00:12:14;;;;;;;3.43;1.60;;;8.00;99.90;7.50;96526.00;;;;4966112;28;20235;-76
2021/08/30 00:15:03;;;;;;;1.50;1.40;;;8.00;99.90;7.40;96509.00;;;;4967971;28;20234;-76
2021/08/30 00:17:53;;;;;;;1.60;1.50;;;8.00;99.90;7.40;96510.00;;;;4967350;28;20203;-76
2021/08/30 00:20:42;;;;;;;1.70;1.60;;;7.90;99.90;7.50;96505.00;;;;4956035;28;20204;-76
2021/08/30 00:23:31;;;;;;;3.53;1.90;;;7.90;99.90;7.70;96509.00;;;;4966408;28;20586;-76
2021/08/30 00:26:20;;;;;;;2.00;1.60;;;7.90;99.90;7.90;96514.00;;;;4966026;28;20215;-76
2021/08/30 00:29:08;;;;;;;1.50;1.40;;;8.00;99.90;7.50;96508.00;;;;4966046;28;20679;-77
2021/08/30 00:31:59;;;;;;;3.27;2.07;;;8.00;99.90;7.30;96513.00;;;;4966582;28;20247;-76
2021/08/30 00:34:49;;;;;;;3.27;2.30;;;7.90;99.90;7.50;96503.00;;;;4966524;28;20729;-76
2021/08/30 00:37:38;;;;;;;1.57;1.47;;;7.90;99.90;7.50;96501.00;;;;4959253;28;20211;-76
2021/08/30 00:40:27;;;;;;;1.80;1.70;;;7.90;99.90;7.40;96502.00;;;;4965936;28;20204;-76
2021/08/30 00:43:16;;;;;;;1.27;1.27;;;7.90;99.90;7.30;96502.00;;;;4965903;28;20219;-76
2021/08/30 00:46:05;;;;;;;1.87;1.77;;;7.80;99.90;7.20;96505.00;;;;4966008;28;20210;-76
2021/08/30 00:48:54;;;;;;;1.57;1.47;;;7.80;99.90;7.30;96506.00;;;;4963359;28;20282;-76
2021/08/30 00:51:44;;;;;;;1.90;1.80;;;7.70;99.90;7.10;96499.00;;;;4959861;28;20228;-76
2021/08/30 00:54:33;;;;;;;1.30;1.20;;;7.70;99.90;6.80;96498.00;;;;4966782;28;20234;-76
2021/08/30 00:57:23;;;;;;;2.17;1.73;;;7.60;99.90;6.80;96501.00;;;;4965903;28;20207;-76
2021/08/30 01:00:14;;;;;;;4.33;1.77;;;7.50;99.90;7.10;96505.00;;;;4965147;28;20211;-76
2021/08/30 01:03:02;;;;;;;1.30;1.20;;;7.50;99.90;7.40;96499.00;;;;4966701;28;20626;-76
2021/08/30 01:05:57;;;;;;;1.60;1.50;;;7.50;99.90;7.40;96507.00;;;;4956513;28;20297;-77
2021/08/30 01:08:55;;;;;;;2.43;1.70;;;7.60;99.90;7.00;96499.00;;;;4965103;28;20699;-76
2021/08/30 01:11:55;;;;;;;2.37;1.70;;;7.60;99.90;7.10;96503.00;;;;4966120;28;20235;-76
2021/08/30 01:14:51;;;;;;;1.63;1.53;;;7.60;99.90;7.40;96499.00;;;;4965547;28;20230;-76
2021/08/30 01:17:41;;;;;;;1.33;1.23;;;7.60;99.90;7.40;96498.00;;;;4958147;28;20581;-76
2021/08/30 01:20:42;;;;;;;1.93;1.73;;;7.60;99.90;7.50;96504.00;;;;4960756;28;20426;-75
2021/08/30 01:23:35;;;;;;;1.90;1.40;;;7.70;99.90;7.20;96508.00;;;;4958499;28;20210;-76
2021/08/30 01:26:26;;;;;;;3.00;1.50;;;7.70;99.90;6.80;96495.00;;;;4970613;28;20725;-76
2021/08/30 01:29:22;;;;;;;1.53;1.30;;;7.60;99.90;7.00;96497.00;;;;4968843;28;20199;-76
2021/08/30 01:32:32;;;;;;;1.60;1.50;;;7.50;99.90;7.00;96491.00;;;;4969244;28;20246;-76
2021/08/30 01:35:24;;;;;;;2.03;1.70;;;7.50;99.90;6.90;96493.00;;;;4969423;28;20227;-76
2021/08/30 01:38:14;;;;;;;2.13;1.70;;;7.50;99.90;6.80;96484.00;;;;4956868;28;20211;-76
2021/08/30 01:41:03;;;;;;;3.33;1.60;;;7.40;99.90;6.80;96490.00;;;;4970378;28;20249;-76
2021/08/30 01:43:53;;;;;;;1.50;1.40;;;7.30;99.90;6.80;96497.00;;;;4963621;28;20223;-76
2021/08/30 01:46:43;;;;;;;1.73;1.63;;;7.30;99.90;6.90;96495.00;;;;4951564;28;20199;-76
2021/08/30 01:49:34;;;;;;;1.33;1.23;;;7.30;99.90;6.90;96491.00;;;;4953417;28;20222;-76
2021/08/30 01:52:22;;;;;;;5.03;1.50;;;7.30;99.90;6.70;96476.00;;;;4965108;28;21008;-76
2021/08/30 01:55:18;;;;;;;2.23;1.43;;;7.30;99.90;6.60;96479.00;;;;4968895;28;20219;-76
2021/08/30 02:01:14;;;;;;;1.73;1.63;;;7.20;99.90;6.60;96472.00;;;;4967012;28;20234;-76
2021/08/30 02:04:03;;;;;;;2.80;1.70;;;7.10;99.90;6.70;96474.00;;;;4968713;28;20582;-76
2021/08/30 02:06:54;;;;;;;3.40;1.77;;;7.10;99.90;6.70;96469.00;;;;4967681;28;20214;-76
2021/08/30 02:09:43;;;;;;;2.17;1.83;;;7.10;99.90;6.70;96463.00;;;;4968033;28;20207;-76
2021/08/30 02:12:31;;;;;;;7.77;1.90;;;7.10;99.90;6.60;96469.00;;;;4967989;28;20621;-76
2021/08/30 02:15:20;;;;;;;2.20;2.00;;;7.10;99.90;6.50;96472.00;;;;4966700;28;20227;-76
2021/08/30 02:18:19;;;;;;;1.80;1.70;;;7.10;99.90;6.30;96477.00;;;;4967113;28;20200;-76
2021/08/30 02:21:14;;;;;;;1.80;1.70;;;7.00;99.90;6.40;96472.00;;;;4954341;28;20223;-76
2021/08/30 02:24:12;;;;;;;3.30;1.80;;;7.00;99.90;6.60;96464.00;;;;4967651;28;20211;-76
2021/08/30 02:27:08;;;;;;;1.70;1.60;;;7.00;99.90;6.40;96463.00;;;;4965829;28;20235;-76
2021/08/30 02:30:04;;;;;;;1.40;1.30;;;7.00;99.90;6.30;96467.00;;;;4955196;28;20203;-75
2021/08/30 02:32:55;;;;;;;1.57;1.47;;;6.90;99.90;6.00;96452.00;;;;4967646;28;20230;-76
2021/08/30 02:35:45;;;;;;;1.23;1.17;;;6.80;99.90;6.00;96440.00;;;;4967548;28;20219;-76
2021/08/30 02:38:35;;;;;;;1.50;1.40;;;6.70;99.90;6.30;96451.00;;;;4967165;28;20199;-75
2021/08/30 02:41:27;;;;;;;1.73;1.63;;;6.70;99.90;6.60;96449.00;;;;4968457;28;20231;-75
2021/08/30 02:44:16;;;;;;;1.40;1.30;;;6.80;99.90;6.90;96445.00;;;;4925422;28;1213913;-76
2021/08/30 02:47:06;;;;;;;1.73;1.63;;;8.20;99.90;6.90;96445.00;;;;4966545;28;20212;-76
2021/08/30 02:49:56;;;;;;;1.70;1.60;;;7.00;99.90;7.10;96443.00;;;;4968014;28;20207;-76
2021/08/30 02:52:47;;;;;;;2.67;1.20;;;7.10;99.90;7.00;96445.00;;;;4963314;28;20609;-75
2021/08/30 02:55:36;;;;;;;1.70;1.60;;;7.20;99.90;6.90;96437.00;;;;4967364;28;20234;-75
2021/08/30 02:58:28;;;;;;;2.00;1.90;;;7.20;99.90;6.90;96443.00;;;;4967696;28;20218;-77
2021/08/30 03:01:19;;;;;;;2.60;1.67;;;7.20;99.90;6.90;96449.00;;;;4965835;28;20916;-75
2021/08/30 03:04:08;;;;;;;1.83;1.73;;;7.20;99.90;6.90;96446.00;;;;4968232;28;20211;-76
2021/08/30 03:06:58;;;;;;;2.28;1.80;;;7.20;99.90;6.50;96454.00;;;;4966426;28;20412;-76
2021/08/30 03:09:47;;;;;;;1.40;1.30;;;7.20;99.90;6.50;96452.00;;;;4962556;28;20208;-76
2021/08/30 03:12:41;;;;;;;1.40;1.30;;;7.10;99.90;6.70;96448.00;;;;4967237;28;20220;-75
2021/08/30 03:15:32;;;;;;;2.43;1.97;;;7.10;99.90;6.80;96460.00;;;;4968215;28;20576;-75
2021/08/30 03:18:22;;;;;;;3.87;1.87;;;7.10;99.90;6.80;96452.00;;;;4967510;28;20686;-75
2021/08/30 03:21:12;;;;;;;1.40;1.30;;;7.10;99.90;6.70;96456.00;;;;4948618;28;20232;-75
2021/08/30 03:24:03;;;;;;;1.27;1.17;;;7.10;99.90;6.70;96453.00;;;;4967885;28;20203;-75
2021/08/30 03:26:53;;;;;;;1.47;1.10;;;7.10;99.90;6.80;96457.00;;;;4967953;28;20219;-75
2021/08/30 03:29:44;;;;;;;1.50;1.40;;;7.10;99.90;6.50;96451.00;;;;4966542;28;20210;-75
2021/08/30 03:32:35;;;;;;;1.37;1.30;;;7.00;99.90;6.40;96455.00;;;;4967318;28;20224;-76
2021/08/30 03:35:25;;;;;;;2.33;2.13;;;7.00;99.90;6.30;96460.00;;;;4967615;28;20613;-76
2021/08/30 03:38:14;;;;;;;2.73;1.30;;;6.90;99.90;6.00;96446.00;;;;4958233;28;20216;-76
2021/08/30 03:41:04;;;;;;;1.30;1.20;;;6.80;99.90;6.20;96457.00;;;;4963887;28;20234;-76
2021/08/30 03:43:55;;;;;;;1.43;1.33;;;6.70;99.90;6.00;96463.00;;;;4966788;28;20266;-75
2021/08/30 03:46:44;;;;;;;1.57;1.47;;;6.70;99.90;5.80;96451.00;;;;4967910;28;20203;-76
2021/08/30 03:49:36;;;;;;;1.60;1.50;;;6.60;99.90;6.10;96460.00;;;;4955130;28;20211;-76
2021/08/30 03:52:26;;;;;;;1.40;1.30;;;6.60;99.90;6.30;96469.00;;;;4967330;28;20215;-75
2021/08/30 03:55:15;;;;;;;1.90;1.37;;;6.60;99.90;6.40;96467.00;;;;4967160;28;20204;-76
2021/08/30 03:58:06;;;;;;;1.60;1.50;;;6.60;99.90;6.40;96471.00;;;;4966474;28;20215;-76
2021/08/30 04:00:57;;;;;;;1.50;1.40;;;6.70;99.90;6.30;96473.00;;;;4966268;28;20490;-76
2021/08/30 04:03:49;;;;;;;1.40;1.30;;;6.70;99.90;6.30;96476.00;;;;4967036;28;20701;-76
2021/08/30 04:06:40;;;;;;;3.20;1.40;;;6.70;99.90;6.40;96472.00;;;;4966789;28;20579;-76
2021/08/30 04:09:29;;;;;;;1.20;1.10;;;6.80;99.90;6.50;96478.00;;;;4966088;28;20203;-75
2021/08/30 04:12:18;;;;;;;1.40;1.30;;;6.70;99.90;6.40;96473.00;;;;4967502;28;20235;-76
2021/08/30 04:15:08;;;;;;;1.47;1.37;;;6.80;99.90;6.40;96477.00;;;;4966436;28;20199;-76
2021/08/30 04:17:57;;;;;;;4.00;1.33;;;6.80;99.90;6.20;96478.00;;;;4965517;28;20285;-76
2021/08/30 04:20:46;;;;;;;1.90;1.80;;;6.80;99.90;6.10;96476.00;;;;4955729;28;20284;-76
2021/08/30 04:23:37;;;;;;;3.03;1.40;;;6.80;99.90;6.00;96476.00;;;;4956101;28;20226;-76
2021/08/30 04:26:25;;;;;;;2.53;1.43;;;6.70;99.90;6.20;96487.00;;;;4967859;28;20210;-75
2021/08/30 04:29:14;;;;;;;1.50;1.40;;;6.70;99.90;6.20;96472.00;;;;4967008;28;20215;-75
2021/08/30 04:32:06;;;;;;;3.13;1.20;;;6.70;99.90;6.20;96479.00;;;;4966015;28;20230;-76
2021/08/30 04:34:55;;;;;;;1.77;1.67;;;6.70;99.90;6.30;96479.00;;;;4955810;28;20211;-75
2021/08/30 04:37:44;;;;;;;1.70;1.60;;;6.70;99.90;6.50;96477.00;;;;4965114;28;20246;-75
2021/08/30 04:40:35;;;;;;;2.50;1.40;;;6.70;99.90;6.70;96485.00;;;;4966987;28;20206;-76
2021/08/30 04:43:24;;;;;;;2.50;1.93;;;6.80;99.90;6.90;96475.00;;;;4966928;28;20591;-77
2021/08/30 04:46:13;;;;;;;2.27;1.70;;;6.90;99.90;7.00;96489.00;;;;4967345;28;20226;-75
2021/08/30 04:49:15;;;;;;;2.03;1.87;;;7.10;99.90;7.00;96496.00;;;;4965922;28;20233;-76
2021/08/30 04:52:05;;;;;;;1.60;1.50;;;7.20;99.90;7.20;96493.00;;;;4966499;28;20285;-77
2021/08/30 04:54:54;;;;;;;1.43;1.33;;;7.30;99.90;7.20;96491.00;;;;4966250;28;20211;-76
2021/08/30 04:57:44;;;;;;;1.57;1.30;;;7.40;99.90;7.40;96489.00;;;;4966249;28;20616;-77
2021/08/30 05:00:33;;;;;;;1.50;1.40;;;7.40;99.90;7.40;96493.00;;;;4965881;28;20251;-77
2021/08/30 05:03:22;;;;;;;1.87;1.77;;;7.60;99.90;7.20;96487.00;;;;4956182;28;20220;-77
2021/08/30 05:06:11;;;;;;;1.50;1.40;;;7.50;99.90;7.40;96494.00;;;;4950956;28;20196;-75
2021/08/30 05:09:00;;;;;;;1.30;1.20;;;7.60;99.90;7.60;96496.00;;;;4952289;28;20211;-76
2021/08/30 05:11:48;;;;;;;2.63;1.43;;;7.70;99.90;7.60;96504.00;;;;4966403;28;20414;-77
2021/08/30 05:14:38;;;;;;;1.57;1.27;;;7.80;99.90;7.60;96490.00;;;;4964301;28;20219;-76
2021/08/30 05:17:27;;;;;;;1.20;1.10;;;7.80;99.90;7.70;96491.00;;;;4955856;28;20359;-77
2021/08/30 05:20:16;;;;;;;1.57;1.47;;;7.90;99.90;7.50;96494.00;;;;4965059;28;20199;-77
2021/08/30 05:23:05;;;;;;;4.00;1.83;;;7.90;99.90;7.80;96501.00;;;;4965098;28;20230;-77
2021/08/30 05:25:54;;;;;;;3.10;1.63;;;8.00;99.90;7.80;96511.00;;;;4965352;28;20207;-78
2021/08/30 05:28:43;;;;;;;1.43;1.33;;;8.10;99.90;7.70;96502.00;;;;4963053;28;20208;-77
2021/08/30 05:31:33;;;;;;;1.67;1.37;;;8.10;99.90;7.70;96494.00;;;;4945630;28;20227;-78
2021/08/30 05:34:22;;;;;;;3.73;1.30;;;8.10;99.90;7.90;96487.00;;;;4955310;28;20340;-77
2021/08/30 05:37:11;;;;;;;2.37;1.80;;;8.20;99.90;8.10;96499.00;;;;4958135;28;20837;-77
2021/08/30 05:40:00;;;;;;;1.53;1.43;;;8.30;99.90;8.20;96487.00;;;;4964679;28;20206;-77
2021/08/30 05:42:49;;;;;;;2.30;1.60;;;8.40;99.90;8.50;96491.00;;;;4963288;28;20234;-77
2021/08/30 05:45:38;;;;;;;1.80;1.70;;;9.90;99.90;8.70;96489.00;;;;4965311;28;20678;-78
2021/08/30 05:48:28;;;;;;;1.97;1.47;;;8.70;99.90;8.80;96479.00;;;;4961383;28;20207;-78
2021/08/30 05:51:18;;;;;;;1.20;1.10;;;8.80;99.90;8.80;96472.00;;;;4954911;28;20226;-77
2021/08/30 05:54:06;;;;;;;3.00;2.13;;;9.00;99.90;8.90;96477.00;;;;4948169;28;20204;-77
2021/08/30 05:56:55;;;;;;;5.33;2.27;;;9.10;99.90;9.10;96467.00;;;;4944918;28;20240;-75
2021/08/30 05:59:44;;;;;;;2.37;1.63;;;9.20;99.90;9.40;96470.00;;;;4965500;28;20226;-77
2021/08/30 06:02:33;;;;;;;1.77;1.60;;;9.30;99.90;9.60;96476.00;;;;4962362;28;20742;-77
2021/08/30 06:05:23;;;;;;;1.23;1.13;;;9.50;99.90;9.50;96473.00;;;;4966837;28;20273;-78
2021/08/30 06:08:12;;;;;;;2.10;1.60;;;9.70;99.90;9.70;96476.00;;;;4968053;28;20207;-78
2021/08/30 06:11:01;;;;;;;1.63;1.53;;;9.80;99.90;10.10;96468.00;;;;4968716;28;20579;-79
2021/08/30 06:13:50;;;;;;;2.33;1.63;;;9.90;99.90;10.40;96468.00;;;;4963072;28;20211;-78
2021/08/30 06:16:39;;;;;;;4.53;1.87;;;10.10;99.90;10.90;96473.00;;;;4969719;28;20212;-79
2021/08/30 06:19:27;;;;;;;5.43;2.40;;;10.40;99.90;11.20;96463.00;;;;4969337;28;20210;-77
2021/08/30 06:22:18;;;;;;;3.73;2.20;;;10.70;99.90;11.40;96476.00;;;;4960595;28;20234;-78
2021/08/30 06:25:08;;;;;;;4.77;2.30;;;11.00;99.90;11.60;96475.00;;;;4970037;28;20218;-76
2021/08/30 06:28:00;;;;;;;3.23;2.60;;;11.20;99.90;11.90;96471.00;;;;4964970;28;20210;-77
2021/08/30 06:30:49;;;;;;;2.20;1.90;;;11.50;99.90;12.20;96472.00;;;;4969921;28;20211;-75
2021/08/30 06:33:38;;;;;;;5.17;1.77;;;11.70;99.90;12.60;96473.00;;;;4968115;28;20578;-77
2021/08/30 06:36:27;;;;;;;3.10;2.10;;;12.00;99.90;13.00;96479.00;;;;4969281;28;20218;-77
2021/08/30 06:39:17;;;;;;;3.00;1.97;;;12.30;99.90;13.20;96473.00;;;;4954197;28;20232;-76
2021/08/30 06:42:06;;;;;;;1.67;1.57;;;12.60;99.90;13.20;96478.00;;;;4961757;28;20227;-77
2021/08/30 06:44:55;;;;;;;3.13;2.23;;;12.80;99.90;13.30;96467.00;;;;4968587;28;20223;-78
2021/08/30 06:47:44;;;;;;;1.63;1.53;;;12.90;99.90;13.10;96471.00;;;;4964515;28;20212;-78
2021/08/30 06:50:33;;;;;;;1.87;1.77;;;13.00;99.90;13.40;96460.00;;;;4968541;28;20219;-78
2021/08/30 06:53:22;;;;;;;1.70;1.60;;;13.10;99.90;13.60;96471.00;;;;4966427;28;20199;-67
2021/08/30 06:56:12;;;;;;;4.60;1.60;;;13.20;99.90;13.70;96471.00;;;;4960089;28;20200;-67
2021/08/30 06:59:03;;;;;;;2.87;1.80;;;13.40;99.90;13.80;96473.00;;;;4966337;28;20232;-67
2021/08/30 07:01:52;;;;;;;2.20;2.07;;;13.50;99.90;13.80;96474.00;;;;4969181;28;20507;-67
2021/08/30 07:04:41;;;;;;;1.60;1.50;;;13.60;99.90;13.90;96462.00;;;;4958309;28;20330;-67
2021/08/30 07:07:30;;;;;;;2.10;2.00;;;13.60;99.90;14.00;96470.00;;;;4959484;28;20207;-66
2021/08/30 07:10:19;;;;;;;1.87;1.30;;;13.70;99.90;14.00;96475.00;;;;4965256;28;20207;-67
2021/08/30 07:13:09;;;;;;;2.40;1.80;;;13.70;99.90;14.10;96479.00;;;;4961957;28;20211;-65
2021/08/30 07:15:59;;;;;;;8.63;1.80;;;13.80;99.90;14.10;96483.00;;;;4958970;28;20885;-68
2021/08/30 07:18:48;;;;;;;2.70;1.30;;;13.80;99.90;14.10;96467.00;;;;4955157;28;20689;-67
2021/08/30 07:21:37;;;;;;;2.13;1.37;;;13.90;99.90;14.40;96493.00;;;;4955374;28;20215;-66
2021/08/30 07:24:25;;;;;;;2.93;2.10;;;14.00;99.90;14.40;96490.00;;;;4967971;28;20214;-66
2021/08/30 07:27:14;;;;;;;3.40;1.60;;;14.10;99.90;14.10;96485.00;;;;4967418;28;20200;-65
2021/08/30 07:30:06;;;;;;;2.00;1.80;;;14.00;99.90;14.30;96492.00;;;;4954944;28;20702;-67
2021/08/30 07:32:54;;;;;;;3.53;2.70;;;14.10;99.90;14.40;96493.00;;;;4967378;28;20227;-67
2021/08/30 07:35:43;;;;;;;2.50;1.80;;;14.10;99.90;14.40;96496.00;;;;4968092;28;20581;-67
2021/08/30 07:38:32;;;;;;;3.27;2.00;;;14.20;99.90;14.60;96494.00;;;;4966962;28;20707;-66
2021/08/30 07:41:21;;;;;;;3.33;1.60;;;14.30;99.90;14.50;96493.00;;;;4955292;28;20895;-67
2021/08/30 07:44:10;;;;;;;2.60;1.63;;;14.30;99.90;14.60;96492.00;;;;4957378;28;20223;-66
2021/08/30 07:47:00;;;;;;;2.67;1.70;;;14.40;99.90;14.50;96494.00;;;;4943824;29;20215;-67
2021/08/30 07:49:49;;;;;;;1.70;1.60;;;14.50;99.90;14.90;96494.00;;;;4919485;29;20216;-68
2021/08/30 07:52:38;;;;;;;2.33;2.10;;;14.50;99.90;14.90;96497.00;;;;4929695;29;20236;-67
2021/08/30 07:55:28;;;;;;;1.60;1.47;;;14.60;99.90;15.00;96505.00;;;;4923172;29;20209;-67
2021/08/30 07:58:17;;;;;;;4.10;1.90;;;14.60;99.90;15.10;96511.00;;;;4919818;29;20503;-67
2021/08/30 08:01:06;;;;;;;2.37;1.27;;;14.70;99.90;15.00;96504.00;;;;4936207;29;20228;-66
2021/08/30 08:03:56;;;;;;;3.27;1.47;;;14.80;99.90;15.30;96508.00;;;;4917704;29;20658;-66
2021/08/30 08:06:45;;;;;;;1.90;1.20;;;14.90;99.90;15.40;96514.00;;;;4934347;28;20228;-67
2021/08/30 08:09:34;;;;;;;2.27;1.53;;;14.90;99.90;15.40;96512.00;;;;4945769;28;20208;-67
2021/08/30 08:12:23;;;;;;;1.57;1.47;;;15.00;99.90;15.50;96516.00;;;;4940024;28;20255;-67
2021/08/30 08:15:12;;;;;;;1.93;1.63;;;15.10;99.90;15.30;96516.00;;;;4936788;28;20208;-67
2021/08/30 08:18:01;;;;;;;2.37;1.83;;;15.10;99.90;15.40;96517.00;;;;4933563;28;20239;-66
2021/08/30 08:20:51;;;;;;;3.37;1.93;;;15.10;99.90;15.50;96517.00;;;;4940840;28;20231;-67
2021/08/30 08:23:42;;;;;;;1.87;1.60;;;15.20;99.90;15.50;96516.00;;;;4940896;29;20227;-65
2021/08/30 08:26:30;;;;;;;2.27;1.60;;;15.20;99.90;15.60;96515.00;;;;4946479;28;20211;-67
2021/08/30 08:29:19;;;;;;;2.00;1.83;;;15.20;99.90;15.70;96519.00;;;;4944803;28;20207;-68
2021/08/30 08:32:08;;;;;;;2.63;1.63;;;15.30;99.90;15.80;96525.00;;;;4943057;28;20232;-66
2021/08/30 08:34:57;;;;;;;2.50;1.23;;;15.30;99.90;15.90;96527.00;;;;4943976;28;20406;-66
2021/08/30 08:37:47;;;;;;;2.47;1.87;;;15.40;99.90;15.90;96527.00;;;;4939676;29;20209;-68
2021/08/30 08:40:36;;;;;;;4.90;1.63;;;15.50;99.90;16.00;96524.00;;;;4946678;28;20212;-68
2021/08/30 08:43:25;;;;;;;2.00;1.80;;;15.70;99.90;16.10;96520.00;;;;4946008;28;20587;-66
2021/08/30 08:46:14;;;;;;;1.47;1.27;;;15.70;99.90;16.20;96530.00;;;;4957889;28;20270;-66
2021/08/30 08:49:03;;;;;;;2.53;1.23;;;15.80;99.90;16.20;96525.00;;;;4959637;28;20204;-67
2021/08/30 08:51:52;;;;;;;1.90;1.67;;;15.90;99.90;16.20;96536.00;;;;4957005;28;20718;-68
2021/08/30 08:54:42;;;;;;;3.17;1.80;;;16.00;99.90;15.80;96536.00;;;;4957817;28;20204;-67
2021/08/30 08:57:32;;;;;;;5.10;2.00;;;15.90;99.90;15.90;96534.00;;;;4958439;28;20206;-66
2021/08/30 09:00:21;;;;;;;2.50;1.40;;;15.90;99.90;16.10;96538.00;;;;4959222;28;20228;-67
2021/08/30 09:03:17;;;;;;;2.73;1.80;;;16.00;99.90;16.60;96531.00;;;;4963053;28;20206;-67
2021/08/30 09:06:07;;;;;;;1.47;1.37;;;16.10;99.90;17.10;96528.00;;;;4958110;28;20211;-67
2021/08/30 09:09:01;;;;;;;2.57;1.80;;;16.30;99.90;17.40;96533.00;;;;4954230;28;20222;-66
2021/08/30 09:11:56;;;;;;;3.70;1.43;;;16.50;99.90;17.50;96529.00;;;;4957696;28;20227;-67
2021/08/30 09:14:44;;;;;;;3.57;1.37;;;16.80;99.90;17.90;96530.00;;;;4956508;28;20672;-68
2021/08/30 09:17:33;;;;;;;5.30;1.43;;;17.00;99.90;17.40;96522.00;;;;4952817;28;20203;-68
2021/08/30 09:20:26;;;;;;;3.03;1.50;;;17.20;99.90;17.50;96521.00;;;;4961553;28;20700;-68
2021/08/30 09:23:16;;;;;;;2.83;1.37;;;17.20;99.90;17.70;96527.00;;;;4958079;28;20217;-66
2021/08/30 09:26:05;;;;;;;1.77;1.50;;;17.30;99.90;17.90;96528.00;;;;4960372;28;20298;-68
2021/08/30 09:28:56;;;;;;;4.37;1.50;;;17.40;99.90;17.70;96530.00;;;;4960289;28;20572;-67
2021/08/30 09:31:57;;;;;;;5.83;1.73;;;17.40;99.90;17.70;96534.00;;;;4958297;28;20246;-68
2021/08/30 09:34:50;;;;;;;2.07;1.70;;;17.40;99.90;17.70;96527.00;;;;4958185;28;20217;-68
2021/08/30 09:37:41;;;;;;;4.80;1.43;;;17.40;99.90;17.60;96526.00;;;;4953814;28;20199;-67
2021/08/30 09:40:30;;;;;;;2.87;1.50;;;17.40;99.90;17.70;96526.00;;;;4964937;28;20234;-68
2021/08/30 09:43:21;;;;;;;1.93;1.33;;;17.40;99.90;17.50;96532.00;;;;4966105;28;20211;-67
2021/08/30 09:46:11;;;;;;;6.30;1.60;;;17.40;99.90;17.80;96524.00;;;;4965851;28;20694;-67
2021/08/30 09:49:07;;;;;;;1.40;1.30;;;17.40;99.90;17.70;96525.00;;;;4964757;28;20207;-67
2021/08/30 09:51:56;;;;;;;2.20;1.43;;;17.50;99.90;17.80;96532.00;;;;4955871;28;20224;-67
2021/08/30 09:54:44;;;;;;;2.80;1.47;;;17.50;99.90;17.80;96523.00;;;;4965128;28;20343;-68
2021/08/30 09:57:35;;;;;;;1.83;1.47;;;17.50;99.90;17.80;96527.00;;;;4957913;28;20239;-68
2021/08/30 10:00:25;;;;;;;1.67;1.20;;;17.50;99.90;17.80;96526.00;;;;4958417;28;20227;-69
2021/08/30 10:03:17;;;;;;;2.40;1.50;;;17.50;99.90;17.70;96524.00;;;;4966847;28;20218;-67
2021/08/30 10:06:08;;;;;;;2.13;1.50;;;17.50;99.90;17.70;96526.00;;;;4965609;28;20208;-67
2021/08/30 10:08:58;;;;;;;3.37;1.93;;;17.40;99.90;17.70;96529.00;;;;4961338;28;20204;-68
2021/08/30 10:11:52;;;;;;;4.90;3.27;;;17.40;99.90;17.90;96530.00;;;;4962831;28;20231;-68
2021/08/30 10:14:42;;;;;;;2.90;1.67;;;17.40;99.90;17.70;96535.00;;;;4965911;28;20693;-68
2021/08/30 10:17:32;;;;;;;2.40;1.23;;;17.40;99.90;17.60;96531.00;;;;4958485;28;20203;-68
2021/08/30 10:20:25;;;;;;;1.37;1.17;;;17.40;99.90;17.80;96528.00;;;;4961919;28;20727;-67
2021/08/30 10:23:14;;;;;;;1.50;1.23;;;17.40;99.90;18.00;96534.00;;;;4964885;28;20348;-68
2021/08/30 10:26:05;;;;;;;2.10;1.40;;;17.50;99.90;18.20;96530.00;;;;4962714;28;20678;-67
2021/08/30 10:28:56;;;;;;;1.33;1.23;;;17.70;99.90;18.40;96539.00;;;;4965444;28;20203;-68
2021/08/30 10:31:50;;;;;;;2.03;1.50;;;18.10;99.90;18.60;96533.00;;;;4967953;28;20230;-66
2021/08/30 10:34:40;;;;;;;1.33;1.23;;;18.00;99.90;18.80;96538.00;;;;4964458;28;20574;-67
2021/08/30 10:37:30;;;;;;;2.20;1.63;;;18.20;99.90;18.70;96547.00;;;;4966764;28;20855;-67
2021/08/30 10:40:23;;;;;;;1.67;1.57;;;18.30;99.90;18.60;96547.00;;;;4962469;28;20219;-67
2021/08/30 10:43:15;;;;;;;1.90;1.30;;;18.30;99.90;18.40;96545.00;;;;4959827;28;20552;-66
2021/08/30 10:46:15;;;;;;;4.10;1.47;;;18.30;99.90;18.30;96546.00;;;;4963808;28;20207;-68
2021/08/30 10:49:15;;;;;;;4.10;1.30;;;18.20;99.90;18.50;96545.00;;;;4959723;28;20207;-67
2021/08/30 10:52:07;;;;;;;2.97;1.00;;;18.20;99.90;18.70;96545.00;;;;4965727;28;20233;-68
2021/08/30 10:55:00;;;;;;;1.20;1.10;;;18.30;99.90;18.90;96545.00;;;;4959138;28;20214;-67
2021/08/30 10:57:51;;;;;;;1.53;1.00;;;18.40;99.90;19.10;96541.00;;;;4960074;28;20211;-66
2021/08/30 11:00:41;;;;;;;1.27;0.90;;;18.50;99.90;18.90;96553.00;;;;4961300;28;20231;-68
2021/08/30 11:03:34;;;;;;;1.63;0.97;;;18.60;99.90;18.90;96548.00;;;;4962617;28;20771;-67
2021/08/30 11:06:24;;;;;;;1.97;1.20;;;18.70;99.90;19.20;96544.00;;;;4962319;28;20585;-67
2021/08/30 11:09:18;;;;;;;1.30;1.20;;;18.70;99.90;19.50;96543.00;;;;4955689;28;20218;-68
2021/08/30 11:12:13;;;;;;;2.33;1.63;;;18.90;99.90;19.80;96530.00;;;;4961508;28;20231;-68
2021/08/30 11:15:05;;;;;;;1.87;1.20;;;19.10;99.90;20.30;96551.00;;;;4960265;28;21148;-67
2021/08/30 11:18:00;;;;;;;1.20;1.10;;;19.30;99.90;20.30;96547.00;;;;4957743;28;20707;-67
2021/08/30 11:20:49;;;;;;;0.97;0.87;;;19.60;99.90;20.30;96552.00;;;;4959484;28;20222;-68
2021/08/30 11:23:38;;;;;;;2.13;1.00;;;19.80;99.90;19.50;96550.00;;;;4950622;28;20215;-67
2021/08/30 11:26:27;;;;;;;1.17;1.07;;;19.70;99.90;19.70;96551.00;;;;4966607;28;20203;-67
2021/08/30 11:29:17;;;;;;;1.30;0.87;;;19.70;99.90;19.80;96557.00;;;;4958812;28;20207;-67
2021/08/30 11:32:07;;;;;;;1.10;0.73;;;19.60;99.90;19.70;96566.00;;;;4963290;28;20223;-66
2021/08/30 11:34:58;;;;;;;1.73;1.03;;;19.60;99.90;19.60;96562.00;;;;4960001;28;20668;-67
2021/08/30 11:37:53;;;;;;;1.03;0.80;;;19.50;99.90;19.80;96570.00;;;;4962319;28;20207;-67
2021/08/30 11:40:42;;;;;;;1.93;1.00;;;19.40;99.90;19.70;96569.00;;;;4959102;28;20232;-67
2021/08/30 11:43:31;;;;;;;2.00;0.87;;;19.40;99.90;19.70;96562.00;;;;4958709;28;20227;-67
2021/08/30 11:46:21;;;;;;;0.93;0.67;;;19.40;99.90;19.60;96569.00;;;;4963537;28;20207;-68
2021/08/30 11:49:10;;;;;;;0.80;0.80;;;19.30;99.90;19.50;96573.00;;;;4961068;28;20193;-67
2021/08/30 11:52:03;;;;;;;2.87;0.87;;;19.30;99.90;19.20;96580.00;;;;4963628;28;20259;-66
2021/08/30 11:55:01;;;;;;;1.20;0.70;;;19.20;99.90;18.80;96586.00;;;;4965348;28;20211;-67
2021/08/30 11:57:52;;;;;;;3.27;0.80;;;19.10;99.90;18.30;96586.00;;;;4962225;28;20200;-67
2021/08/30 12:01:01;;;;;;;1.67;1.00;;;18.80;99.90;18.30;96576.00;;;;4954866;28;20606;-68
2021/08/30 12:03:52;;;;;;;2.03;0.80;;;18.60;99.90;18.60;96576.00;;;;4956841;28;20263;-67
2021/08/30 12:06:50;;;;;;;0.80;0.80;;;18.60;99.90;18.70;96578.00;;;;4957730;28;20572;-67
2021/08/30 12:09:44;;;;;;;0.70;0.70;;;18.60;99.90;18.90;96579.00;;;;4964848;28;20695;-68
2021/08/30 12:12:35;;;;;;;1.10;1.00;;;18.60;99.90;19.10;96571.00;;;;4955833;28;20254;-67
2021/08/30 12:15:26;;;;;;;0.70;0.67;;;18.70;99.90;19.50;96584.00;;;;4960590;28;20207;-67
2021/08/30 12:18:18;;;;;;;0.97;0.90;;;18.90;99.90;19.50;96571.00;;;;4944721;28;20215;-67
2021/08/30 12:21:08;;;;;;;1.07;0.90;;;19.00;99.90;19.20;96565.00;;;;4958736;28;20453;-70
2021/08/30 12:23:58;;;;;;;1.83;0.80;;;19.10;98.60;19.00;96573.00;;;;4963868;28;20199;-69
2021/08/30 12:26:49;;;;;;;1.13;0.87;;;19.10;98.00;18.90;96577.00;;;;4962524;28;20603;-72
2021/08/30 12:29:39;;;;;;;1.80;0.70;;;18.70;98.10;18.90;96561.00;;;;4961407;28;20195;-72
2021/08/30 12:32:28;;;;;;;1.83;0.60;;;19.00;99.90;19.30;96564.00;;;;4960027;28;20635;-70
2021/08/30 12:35:20;;;;;;;2.07;1.20;;;19.00;99.90;19.20;96564.00;;;;4965720;28;20196;-69
2021/08/30 12:38:13;;;;;;;2.03;1.10;;;19.00;99.90;18.90;96575.00;;;;4960568;28;20208;-69
2021/08/30 12:41:04;;;;;;;2.00;1.00;;;19.00;99.90;18.90;96566.00;;;;4961672;28;20215;-70
2021/08/30 12:43:53;;;;;;;1.03;0.90;;;18.50;99.90;18.90;96569.00;;;;4962798;28;20216;-71
2021/08/30 12:46:42;;;;;;;1.10;1.00;;;18.80;99.90;18.80;96557.00;;;;4958444;28;20407;-70
2021/08/30 12:49:31;;;;;;;0.77;0.70;;;18.70;99.90;18.60;96566.00;;;;4963431;28;20214;-69